Time;durP1;ratioP1;P1;durP2;ratioP2;P2;SDS_P1;SDS_P2;PMS_P1;PMS_P2;Temp;Humidity;BMP_temperature;BMP_pressure;BME280_temperature;BME280_humidity;BME280_pressure;Samples;Min_cycle;Max_cycle;Signal;HPM_P1;HPM_P2
2022/10/18 00:02:04;;;;;;;78.30;53.53;;;26.60;99.90;;;;;;5033313;28;20028;-61
2022/10/18 00:04:31;;;;;;;77.07;54.13;;;26.70;99.90;;;;;;5033397;28;20025;-60
2022/10/18 00:06:57;;;;;;;73.13;51.22;;;26.70;99.90;;;;;;5033023;28;20033;-59
2022/10/18 00:09:26;;;;;;;74.22;50.90;;;26.80;99.90;;;;;;5033400;28;20029;-62
2022/10/18 00:11:53;;;;;;;76.00;52.83;;;26.80;99.90;;;;;;5033392;28;20026;-61
2022/10/18 00:14:20;;;;;;;73.80;49.75;;;26.90;99.90;;;;;;5032901;28;20018;-59
2022/10/18 00:16:46;;;;;;;67.97;49.40;;;27.00;99.90;;;;;;5033104;28;20018;-61
2022/10/18 00:19:13;;;;;;;75.50;50.05;;;27.10;99.90;;;;;;5033070;28;20025;-61
2022/10/18 00:21:39;;;;;;;64.38;48.75;;;27.10;99.90;;;;;;5033075;28;20025;-61
2022/10/18 00:24:06;;;;;;;70.00;47.70;;;27.10;99.90;;;;;;5033469;28;20498;-61
2022/10/18 00:26:32;;;;;;;57.38;42.45;;;27.10;99.90;;;;;;5033391;28;20026;-61
2022/10/18 00:29:02;;;;;;;55.88;40.65;;;27.10;99.90;;;;;;5033182;28;20025;-63
2022/10/18 00:31:39;;;;;;;58.42;44.92;;;27.00;99.90;;;;;;5033158;28;20044;-61
2022/10/18 00:34:12;;;;;;;57.10;40.30;;;27.00;99.90;;;;;;5033053;28;20109;-61
2022/10/18 00:36:39;;;;;;;58.75;40.63;;;27.00;99.90;;;;;;5032843;28;20025;-61
2022/10/18 00:39:07;;;;;;;53.75;40.53;;;27.10;99.90;;;;;;5032962;28;20029;-63
2022/10/18 00:41:36;;;;;;;60.17;41.92;;;27.30;99.90;;;;;;5032938;28;20470;-63
2022/10/18 00:44:03;;;;;;;58.67;41.38;;;27.30;99.90;;;;;;5032487;28;20046;-62
2022/10/18 00:46:34;;;;;;;53.40;39.60;;;27.40;99.90;;;;;;5032808;28;20029;-62
2022/10/18 00:49:09;;;;;;;51.28;37.78;;;27.50;99.90;;;;;;5032745;28;20032;-63
2022/10/18 00:51:43;;;;;;;59.55;39.45;;;27.50;99.90;;;;;;5032249;28;20022;-61
2022/10/18 00:54:12;;;;;;;49.72;36.58;;;27.40;99.90;;;;;;5032644;28;20111;-61
2022/10/18 00:56:39;;;;;;;53.75;36.17;;;27.50;99.90;;;;;;5035376;28;20445;-60
2022/10/18 00:59:07;;;;;;;47.13;35.75;;;27.60;99.90;;;;;;5037368;28;20413;-60
2022/10/18 01:01:33;;;;;;;68.55;52.40;;;27.70;99.90;;;;;;5036822;28;20064;-63
2022/10/18 01:04:00;;;;;;;46.08;33.30;;;27.80;99.90;;;;;;5037179;28;20474;-63
2022/10/18 01:06:27;;;;;;;46.63;34.08;;;27.90;99.90;;;;;;5037340;28;20030;-63
2022/10/18 01:08:58;;;;;;;50.40;33.30;;;27.90;99.90;;;;;;5037175;28;20440;-63
2022/10/18 01:11:42;;;;;;;44.40;33.35;;;28.00;99.90;;;;;;5036976;28;20017;-57
2022/10/18 01:14:20;;;;;;;47.53;34.40;;;28.10;99.90;;;;;;5019400;28;20371;-60
2022/10/18 01:16:46;;;;;;;41.53;33.25;;;28.10;99.90;;;;;;5037008;28;20029;-58
2022/10/18 01:19:15;;;;;;;44.72;33.50;;;28.10;99.90;;;;;;5036150;28;20059;-65
2022/10/18 01:22:04;;;;;;;41.03;32.83;;;28.20;99.90;;;;;;5036983;28;20029;-64
2022/10/18 01:24:33;;;;;;;39.75;31.40;;;28.20;99.90;;;;;;5037285;28;20021;-63
2022/10/18 01:27:05;;;;;;;43.83;31.30;;;28.20;99.90;;;;;;5037151;28;20045;-65
2022/10/18 01:29:41;;;;;;;42.67;33.72;;;28.30;99.90;;;;;;5036149;28;20021;-61
2022/10/18 01:32:14;;;;;;;51.88;36.97;;;28.30;99.90;;;;;;5035612;28;20030;-61
2022/10/18 01:34:43;;;;;;;49.35;37.53;;;28.20;99.90;;;;;;5035588;28;20478;-64
2022/10/18 01:37:15;;;;;;;44.05;33.78;;;28.30;99.90;;;;;;5035945;28;20028;-63
2022/10/18 01:39:45;;;;;;;37.45;29.65;;;28.30;99.90;;;;;;5035470;28;20021;-64
2022/10/18 01:42:16;;;;;;;36.50;30.33;;;28.40;99.90;;;;;;5035557;28;20088;-65
2022/10/18 01:44:45;;;;;;;45.42;28.77;;;28.50;99.90;;;;;;5035493;28;20120;-63
2022/10/18 01:47:14;;;;;;;44.70;31.30;;;28.70;99.90;;;;;;5035413;28;20026;-63
2022/10/18 01:49:40;;;;;;;39.45;30.65;;;28.80;99.90;;;;;;5035495;28;20032;-63
2022/10/18 01:52:12;;;;;;;31.63;26.13;;;28.80;99.90;;;;;;5035354;28;20068;-64
2022/10/18 01:54:43;;;;;;;31.73;25.63;;;28.70;99.90;;;;;;5035381;28;20052;-64
2022/10/18 01:57:18;;;;;;;37.33;27.00;;;28.70;99.90;;;;;;5035295;28;20072;-63
2022/10/18 01:59:52;;;;;;;38.28;27.70;;;28.70;99.90;;;;;;5035115;28;20014;-63
2022/10/18 02:02:27;;;;;;;32.90;25.75;;;28.70;99.90;;;;;;5035181;28;20032;-63
2022/10/18 02:04:58;;;;;;;32.58;24.92;;;28.80;99.90;;;;;;5034978;28;20467;-63
2022/10/18 02:07:32;;;;;;;33.10;24.80;;;28.80;99.90;;;;;;5034983;28;20389;-64
2022/10/18 02:10:22;;;;;;;28.25;23.52;;;28.80;99.90;;;;;;5035050;28;20048;-63
2022/10/18 02:12:50;;;;;;;29.75;23.05;;;28.80;99.90;;;;;;5034833;28;20485;-64
2022/10/18 02:15:22;;;;;;;48.90;33.80;;;28.80;99.90;;;;;;5034935;28;20059;-64
2022/10/18 02:17:50;;;;;;;33.80;26.20;;;28.90;99.90;;;;;;5035133;28;20093;-61
2022/10/18 02:20:20;;;;;;;29.27;23.80;;;29.00;99.90;;;;;;5035198;28;20097;-64
2022/10/18 02:22:49;;;;;;;28.33;21.08;;;29.10;99.90;;;;;;5034720;28;20033;-64
2022/10/18 02:25:23;;;;;;;23.45;20.10;;;29.20;99.90;;;;;;5035027;28;20024;-61
2022/10/18 02:27:50;;;;;;;47.78;31.60;;;29.40;99.90;;;;;;5034773;28;20492;-63
2022/10/18 02:30:17;;;;;;;27.20;19.52;;;29.50;99.90;;;;;;5034587;28;20029;-64
2022/10/18 02:32:52;;;;;;;25.70;20.02;;;29.50;99.90;;;;;;5034454;28;20034;-62
2022/10/18 02:35:26;;;;;;;33.60;22.27;;;29.50;99.90;;;;;;5034518;28;20026;-60
2022/10/18 02:37:54;;;;;;;32.83;23.35;;;29.50;99.90;;;;;;5034552;28;20097;-62
2022/10/18 02:40:20;;;;;;;39.22;28.88;;;29.50;99.90;;;;;;5034496;28;20020;-60
2022/10/18 02:42:52;;;;;;;35.40;24.10;;;29.50;99.90;;;;;;5034421;28;20032;-62
2022/10/18 02:45:19;;;;;;;39.28;25.95;;;29.50;99.90;;;;;;5034374;28;20489;-63
2022/10/18 02:47:45;;;;;;;28.20;21.98;;;29.50;99.90;;;;;;5034454;28;20545;-58
2022/10/18 02:50:13;;;;;;;29.50;21.58;;;29.60;99.90;;;;;;5034110;28;20386;-60
2022/10/18 02:52:40;;;;;;;28.08;22.00;;;29.60;99.90;;;;;;5034167;28;20037;-63
2022/10/18 02:55:07;;;;;;;27.58;19.98;;;29.50;99.90;;;;;;5028602;28;20533;-60
2022/10/18 02:57:33;;;;;;;27.90;18.42;;;29.60;99.90;;;;;;5024978;28;20116;-61
2022/10/18 03:00:00;;;;;;;61.15;39.35;;;29.60;99.90;;;;;;5022022;28;20117;-59
2022/10/18 03:02:26;;;;;;;239.73;178.48;;;29.50;99.90;;;;;;5021719;28;20026;-60
2022/10/18 03:04:53;;;;;;;47.97;35.70;;;29.60;99.90;;;;;;5021830;28;20014;-61
2022/10/18 03:07:20;;;;;;;25.30;21.13;;;29.60;99.90;;;;;;5023440;28;20112;-63
2022/10/18 03:09:46;;;;;;;27.95;20.05;;;29.60;99.90;;;;;;5031538;28;20107;-62
2022/10/18 03:12:13;;;;;;;118.78;84.28;;;29.70;99.90;;;;;;5033621;28;20053;-60
2022/10/18 03:14:39;;;;;;;41.40;29.15;;;29.70;99.90;;;;;;5033868;28;20056;-60
2022/10/18 03:17:06;;;;;;;28.15;17.73;;;29.70;99.90;;;;;;5033673;28;20023;-64
2022/10/18 03:19:32;;;;;;;27.20;17.27;;;29.70;99.90;;;;;;5033225;28;20017;-64
2022/10/18 03:21:59;;;;;;;25.88;19.27;;;29.70;99.90;;;;;;5033599;28;20096;-61
2022/10/18 03:24:25;;;;;;;26.70;20.77;;;29.70;99.90;;;;;;5033807;28;20032;-61
2022/10/18 03:26:52;;;;;;;29.52;19.90;;;29.60;99.90;;;;;;5033620;28;20072;-62
2022/10/18 03:29:18;;;;;;;23.42;17.80;;;29.60;99.90;;;;;;5033510;28;20095;-62
2022/10/18 03:31:45;;;;;;;24.92;18.25;;;29.60;99.90;;;;;;5033579;28;20018;-62
2022/10/18 03:34:11;;;;;;;33.95;25.83;;;29.70;99.90;;;;;;5033388;28;20101;-60
2022/10/18 03:36:40;;;;;;;30.05;20.70;;;29.70;99.90;;;;;;5033416;28;20429;-60
2022/10/18 03:39:06;;;;;;;54.42;30.83;;;29.90;99.90;;;;;;5033375;28;20026;-64
2022/10/18 03:41:33;;;;;;;21.70;17.65;;;30.00;99.90;;;;;;5033498;28;20422;-60
2022/10/18 03:43:59;;;;;;;33.00;20.13;;;30.10;99.90;;;;;;5033081;28;20041;-62
2022/10/18 03:46:26;;;;;;;29.95;19.42;;;30.00;99.90;;;;;;5033516;28;20083;-62
2022/10/18 03:48:52;;;;;;;36.08;26.83;;;30.00;99.90;;;;;;5033366;28;20100;-64
2022/10/18 03:51:19;;;;;;;24.08;17.65;;;30.10;99.90;;;;;;5033220;28;20034;-60
2022/10/18 03:53:45;;;;;;;33.35;24.63;;;30.20;99.90;;;;;;5033471;28;20025;-61
2022/10/18 03:56:12;;;;;;;45.85;27.90;;;30.20;99.90;;;;;;5033266;28;20425;-63
2022/10/18 03:58:38;;;;;;;115.55;71.13;;;30.30;99.90;;;;;;5025511;28;20017;-62
2022/10/18 04:01:05;;;;;;;60.45;41.53;;;30.20;99.90;;;;;;5022347;28;20387;-61
2022/10/18 04:03:32;;;;;;;62.63;42.17;;;30.30;99.90;;;;;;5021072;28;20030;-60
2022/10/18 04:05:59;;;;;;;24.55;18.50;;;30.30;99.90;;;;;;5022792;28;20030;-60
2022/10/18 04:08:26;;;;;;;33.75;22.83;;;30.40;99.90;;;;;;5022432;28;20050;-59
2022/10/18 04:10:52;;;;;;;26.95;20.45;;;30.50;99.90;;;;;;5020782;28;20398;-55
2022/10/18 04:13:19;;;;;;;29.35;20.90;;;30.50;99.90;;;;;;5028239;28;20462;-60
2022/10/18 04:15:45;;;;;;;62.50;46.55;;;30.50;99.90;;;;;;5021911;28;20018;-58
2022/10/18 04:18:12;;;;;;;40.13;31.15;;;30.50;99.90;;;;;;5020961;28;20029;-61
2022/10/18 04:20:39;;;;;;;27.73;20.02;;;30.60;99.90;;;;;;5022058;28;20022;-62
2022/10/18 04:23:05;;;;;;;36.45;25.45;;;30.60;99.90;;;;;;5022551;28;20034;-62
2022/10/18 04:25:31;;;;;;;38.25;24.25;;;30.60;99.90;;;;;;5021245;28;20026;-61
2022/10/18 04:27:58;;;;;;;44.40;25.92;;;30.60;99.90;;;;;;5022440;28;20025;-64
2022/10/18 04:30:24;;;;;;;35.15;22.00;;;30.60;99.90;;;;;;5026650;28;20018;-60
2022/10/18 04:32:51;;;;;;;47.17;22.67;;;30.60;99.90;;;;;;5019659;28;20061;-59
2022/10/18 04:35:21;;;;;;;45.15;26.50;;;30.60;99.90;;;;;;5017150;28;20446;-61
2022/10/18 04:37:47;;;;;;;24.80;18.30;;;30.60;99.90;;;;;;5016930;28;20033;-59
2022/10/18 04:40:14;;;;;;;308.92;131.18;;;30.60;99.90;;;;;;5016960;28;20021;-62
2022/10/18 04:42:40;;;;;;;24.00;18.60;;;30.70;99.90;;;;;;5016658;28;20573;-60
2022/10/18 04:45:07;;;;;;;39.90;26.77;;;30.90;99.90;;;;;;5016762;28;20094;-60
2022/10/18 04:47:34;;;;;;;45.10;30.40;;;31.00;99.90;;;;;;5016821;28;20497;-62
2022/10/18 04:50:00;;;;;;;36.10;24.92;;;31.20;99.90;;;;;;5016948;28;20049;-63
2022/10/18 04:52:27;;;;;;;33.25;21.48;;;31.40;99.90;;;;;;5016542;28;20464;-60
2022/10/18 04:54:53;;;;;;;30.58;21.50;;;31.30;99.90;;;;;;5016714;28;20022;-60
2022/10/18 04:57:20;;;;;;;108.70;65.65;;;31.20;99.90;;;;;;5016661;28;20040;-60
2022/10/18 04:59:46;;;;;;;53.17;36.28;;;31.10;99.90;;;;;;5016471;28;20048;-64
2022/10/18 05:02:13;;;;;;;43.50;25.42;;;31.20;99.90;;;;;;5016533;28;20037;-61
2022/10/18 05:04:39;;;;;;;34.15;25.23;;;31.20;99.90;;;;;;5016541;28;20022;-62
2022/10/18 05:07:06;;;;;;;111.97;67.57;;;31.20;99.90;;;;;;5016289;28;20054;-60
2022/10/18 05:09:33;;;;;;;42.55;27.65;;;31.20;99.90;;;;;;5016286;28;20030;-63
2022/10/18 05:11:59;;;;;;;47.30;27.50;;;31.40;99.90;;;;;;5016170;28;20080;-59
2022/10/18 05:14:26;;;;;;;243.32;116.20;;;31.40;99.90;;;;;;5016183;28;20105;-61
2022/10/18 05:16:52;;;;;;;49.75;29.88;;;31.30;99.90;;;;;;5016345;28;20018;-60
2022/10/18 05:19:19;;;;;;;38.85;24.42;;;31.40;99.90;;;;;;5016510;28;20494;-62
2022/10/18 05:21:46;;;;;;;28.40;20.20;;;31.40;99.90;;;;;;5016047;28;20022;-61
2022/10/18 05:24:12;;;;;;;28.48;20.33;;;31.50;99.90;;;;;;5015992;28;20463;-62
2022/10/18 05:26:39;;;;;;;27.88;22.17;;;31.50;99.90;;;;;;5015900;28;20393;-65
2022/10/18 05:29:05;;;;;;;36.97;25.38;;;31.50;99.90;;;;;;5015671;28;20026;-63
2022/10/18 05:31:32;;;;;;;45.42;29.00;;;31.50;99.90;;;;;;5015748;28;20080;-61
2022/10/18 05:34:00;;;;;;;31.25;24.27;;;31.60;99.90;;;;;;5025310;28;20021;-57
2022/10/18 05:36:27;;;;;;;31.75;24.48;;;31.70;99.90;;;;;;5023715;28;20091;-60
2022/10/18 05:38:54;;;;;;;46.78;30.60;;;31.70;99.90;;;;;;5019567;28;20097;-60
2022/10/18 05:41:21;;;;;;;34.55;24.42;;;31.90;99.90;;;;;;5019670;28;20025;-60
2022/10/18 05:43:47;;;;;;;31.10;23.50;;;31.90;99.90;;;;;;5019253;28;20025;-59
2022/10/18 05:46:14;;;;;;;29.50;21.67;;;31.90;99.90;;;;;;5019618;28;20025;-61
2022/10/18 05:48:40;;;;;;;32.85;23.75;;;31.90;99.90;;;;;;5019929;28;20033;-59
2022/10/18 05:51:07;;;;;;;31.60;23.35;;;32.00;99.90;;;;;;5024312;28;20021;-59
2022/10/18 05:53:33;;;;;;;35.40;24.23;;;31.90;99.90;;;;;;5027225;28;20040;-60
2022/10/18 05:56:00;;;;;;;28.83;20.33;;;31.90;99.90;;;;;;5026939;28;20022;-59
2022/10/18 05:58:27;;;;;;;32.85;22.00;;;31.80;99.90;;;;;;5023312;28;20030;-62
2022/10/18 06:00:53;;;;;;;34.70;24.17;;;31.80;99.90;;;;;;5021844;28;20022;-60
2022/10/18 06:03:20;;;;;;;34.15;23.98;;;31.70;99.90;;;;;;5015412;28;20105;-64
2022/10/18 06:05:46;;;;;;;30.45;23.85;;;31.70;99.90;;;;;;5015359;28;20402;-62
2022/10/18 06:08:13;;;;;;;32.72;22.38;;;31.60;99.90;;;;;;5035626;28;20033;-61
2022/10/18 06:10:39;;;;;;;36.47;24.88;;;31.70;99.90;;;;;;5035182;28;20091;-58
2022/10/18 06:13:06;;;;;;;31.60;23.45;;;31.70;99.90;;;;;;5034913;28;20112;-60
2022/10/18 06:15:32;;;;;;;37.58;25.00;;;31.70;99.90;;;;;;5034850;28;20075;-62
2022/10/18 06:17:59;;;;;;;31.77;22.65;;;31.70;99.90;;;;;;5034907;28;20026;-61
2022/10/18 06:20:25;;;;;;;29.05;22.60;;;31.70;99.90;;;;;;5031542;28;20486;-61
2022/10/18 06:22:52;;;;;;;31.45;23.38;;;31.70;99.90;;;;;;5034615;28;20075;-61
2022/10/18 06:25:19;;;;;;;32.15;22.58;;;31.70;99.90;;;;;;5028167;28;20105;-65
2022/10/18 06:27:45;;;;;;;31.15;23.90;;;31.60;99.90;;;;;;5025452;28;20157;-64
2022/10/18 06:30:12;;;;;;;30.52;22.17;;;31.70;99.90;;;;;;5022578;28;20034;-60
2022/10/18 06:32:38;;;;;;;37.90;24.98;;;31.80;99.90;;;;;;5023496;28;20028;-61
2022/10/18 06:35:05;;;;;;;32.13;22.23;;;31.80;99.90;;;;;;5024526;28;20022;-60
2022/10/18 06:37:33;;;;;;;32.13;22.40;;;31.80;99.90;;;;;;5022198;28;20014;-60
2022/10/18 06:40:00;;;;;;;48.90;31.08;;;31.80;99.90;;;;;;5028749;28;20091;-59
2022/10/18 06:42:27;;;;;;;59.17;35.13;;;31.90;99.90;;;;;;5034725;28;20047;-61
2022/10/18 06:44:54;;;;;;;28.88;22.92;;;31.90;99.90;;;;;;5034021;28;20077;-63
2022/10/18 06:47:20;;;;;;;30.83;21.98;;;31.90;99.90;;;;;;5034362;28;20026;-61
2022/10/18 06:49:47;;;;;;;41.83;29.15;;;32.00;99.90;;;;;;5034266;28;20025;-62
2022/10/18 06:52:15;;;;;;;33.92;24.75;;;32.00;99.90;;;;;;5033527;28;20028;-63
2022/10/18 06:54:42;;;;;;;33.50;25.08;;;32.10;99.90;;;;;;5033898;28;20017;-64
2022/10/18 06:57:08;;;;;;;31.08;23.65;;;32.00;99.90;;;;;;5034256;28;20026;-62
2022/10/18 06:59:35;;;;;;;32.40;24.35;;;32.10;99.90;;;;;;5030474;28;20083;-62
2022/10/18 07:02:01;;;;;;;32.80;25.27;;;32.10;99.90;;;;;;5020245;28;20056;-63
2022/10/18 07:04:30;;;;;;;27.73;23.35;;;32.20;99.90;;;;;;5014137;28;20022;-60
2022/10/18 07:06:56;;;;;;;29.17;24.13;;;32.20;99.90;;;;;;5013958;28;20025;-62
2022/10/18 07:09:23;;;;;;;27.85;22.88;;;32.30;99.90;;;;;;5014045;28;20026;-62
2022/10/18 07:11:51;;;;;;;30.98;23.05;;;32.40;99.90;;;;;;5014312;28;20025;-63
2022/10/18 07:14:18;;;;;;;31.00;25.25;;;32.50;99.90;;;;;;5013799;28;20032;-63
2022/10/18 07:16:44;;;;;;;32.83;26.77;;;32.50;99.90;;;;;;5014099;28;20022;-64
2022/10/18 07:19:11;;;;;;;28.02;25.02;;;32.60;99.90;;;;;;5014018;28;20022;-60
2022/10/18 07:21:37;;;;;;;31.88;26.67;;;32.60;99.90;;;;;;5013843;28;20026;-61
2022/10/18 07:24:04;;;;;;;27.52;24.48;;;32.60;99.90;;;;;;5014056;28;20474;-62
2022/10/18 07:26:32;;;;;;;29.90;23.55;;;32.80;99.90;;;;;;5014208;28;20434;-64
2022/10/18 07:29:09;;;;;;;33.17;24.98;;;33.00;99.90;;;;;;5013777;28;20033;-64
2022/10/18 07:31:38;;;;;;;31.75;25.23;;;33.00;99.90;;;;;;5013898;28;20502;-61
2022/10/18 07:34:06;;;;;;;32.50;23.52;;;32.90;99.90;;;;;;5013780;28;20467;-65
2022/10/18 07:36:33;;;;;;;29.65;25.48;;;33.00;99.90;;;;;;5013555;28;20018;-61
2022/10/18 07:39:00;;;;;;;38.47;24.00;;;33.10;99.90;;;;;;5014114;28;20101;-61
2022/10/18 07:41:27;;;;;;;27.50;22.60;;;33.10;99.90;;;;;;5024441;28;20462;-60
2022/10/18 07:43:54;;;;;;;38.92;26.92;;;33.00;99.90;;;;;;5024492;28;20038;-62
2022/10/18 07:46:22;;;;;;;26.95;23.58;;;33.00;99.90;;;;;;5013826;28;20152;-62
2022/10/18 07:48:48;;;;;;;28.55;22.70;;;33.00;99.90;;;;;;5026962;28;20466;-60
2022/10/18 07:51:16;;;;;;;34.83;23.23;;;33.20;99.90;;;;;;5014301;28;20037;-63
2022/10/18 07:53:42;;;;;;;30.85;24.27;;;33.10;99.90;;;;;;5013591;28;20101;-64
2022/10/18 07:56:16;;;;;;;29.83;24.88;;;33.10;99.90;;;;;;5021464;28;20053;-58
2022/10/18 07:58:45;;;;;;;28.85;25.05;;;33.10;99.70;;;;;;5023621;28;20474;-62
2022/10/18 08:01:12;;;;;;;38.35;27.15;;;33.10;99.90;;;;;;5022219;28;20033;-62
2022/10/18 08:03:40;;;;;;;36.95;25.90;;;33.10;99.90;;;;;;5019373;28;20027;-63
2022/10/18 08:06:09;;;;;;;31.33;24.88;;;33.10;99.90;;;;;;5018994;28;20867;-59
2022/10/18 08:08:37;;;;;;;33.47;25.92;;;33.20;99.90;;;;;;5023108;28;20466;-63
2022/10/18 08:11:08;;;;;;;32.83;25.23;;;33.30;99.90;;;;;;5025957;28;20030;-60
2022/10/18 08:13:34;;;;;;;36.03;26.83;;;33.30;99.90;;;;;;5023587;28;20088;-60
2022/10/18 08:16:06;;;;;;;35.25;26.27;;;33.10;99.10;;;;;;5023500;28;20017;-57
2022/10/18 08:18:33;;;;;;;33.80;25.53;;;33.10;99.70;;;;;;5022409;28;20080;-57
2022/10/18 08:21:02;;;;;;;34.42;27.23;;;32.90;99.90;;;;;;5027329;28;20258;-63
2022/10/18 08:23:29;;;;;;;34.15;27.33;;;32.90;99.60;;;;;;5022139;28;20030;-62
2022/10/18 08:25:56;;;;;;;39.78;27.65;;;32.90;99.50;;;;;;5022177;28;20025;-63
2022/10/18 08:28:22;;;;;;;36.83;27.75;;;32.90;99.90;;;;;;5025201;28;20020;-62
2022/10/18 08:30:49;;;;;;;50.78;34.17;;;32.90;99.40;;;;;;5025622;28;20049;-64
2022/10/18 08:33:15;;;;;;;40.53;29.63;;;32.90;99.90;;;;;;5021453;28;20054;-59
2022/10/18 08:35:42;;;;;;;39.17;30.38;;;32.90;99.90;;;;;;5029370;28;20022;-63
2022/10/18 08:38:10;;;;;;;41.33;29.92;;;33.00;99.90;;;;;;5032909;28;20432;-63
2022/10/18 08:40:43;;;;;;;35.67;28.45;;;32.90;99.90;;;;;;5032731;28;20099;-64
2022/10/18 08:43:15;;;;;;;33.20;27.77;;;32.80;99.90;;;;;;5033091;28;20100;-60
2022/10/18 08:45:43;;;;;;;39.30;28.65;;;32.80;99.90;;;;;;5022311;28;20489;-60
2022/10/18 08:48:17;;;;;;;38.08;28.63;;;32.80;99.90;;;;;;5023582;28;20508;-61
2022/10/18 08:50:45;;;;;;;42.05;30.30;;;32.80;99.90;;;;;;5032704;28;20030;-63
2022/10/18 08:53:14;;;;;;;47.53;34.65;;;32.80;99.90;;;;;;5032514;28;20021;-64
2022/10/18 08:55:43;;;;;;;146.45;132.25;;;32.80;99.90;;;;;;5032392;28;20088;-64
2022/10/18 08:58:26;;;;;;;191.30;171.73;;;32.70;99.90;;;;;;5021740;28;20522;-62
2022/10/18 09:00:57;;;;;;;67.15;44.85;;;32.70;99.90;;;;;;5022737;28;20203;-60
2022/10/18 09:03:25;;;;;;;59.73;40.30;;;32.70;99.90;;;;;;5021394;28;20028;-63
2022/10/18 09:05:59;;;;;;;57.80;40.90;;;32.60;99.90;;;;;;5021365;28;20022;-67
2022/10/18 09:08:28;;;;;;;67.55;47.70;;;32.60;99.90;;;;;;5021232;28;20104;-63
2022/10/18 09:10:57;;;;;;;71.03;45.53;;;32.50;99.90;;;;;;5020876;28;20021;-64
2022/10/18 09:13:29;;;;;;;58.45;36.72;;;32.30;99.90;;;;;;5013355;28;20538;-65
2022/10/18 09:16:02;;;;;;;53.13;33.00;;;31.80;99.90;;;;;;5013376;28;20033;-61
2022/10/18 09:18:31;;;;;;;61.08;40.70;;;31.50;99.90;;;;;;5026797;28;20030;-63
2022/10/18 09:21:00;;;;;;;43.85;28.17;;;31.30;99.90;;;;;;5032176;28;20025;-67
2022/10/18 09:23:30;;;;;;;33.58;20.88;;;31.00;99.90;;;;;;5016209;28;20022;-60
2022/10/18 09:26:10;;;;;;;36.88;23.58;;;30.70;99.90;;;;;;5015998;28;20112;-62
2022/10/18 09:28:39;;;;;;;75.22;45.22;;;30.80;99.90;;;;;;5016205;28;20029;-62
2022/10/18 09:31:09;;;;;;;47.60;31.23;;;30.90;99.90;;;;;;5029363;28;20116;-62
2022/10/18 09:33:41;;;;;;;61.45;42.83;;;30.60;99.90;;;;;;5036088;28;20022;-60
2022/10/18 09:36:13;;;;;;;59.33;32.20;;;30.30;99.90;;;;;;5035729;28;20116;-61
2022/10/18 09:38:45;;;;;;;65.07;38.00;;;30.10;99.90;;;;;;5035577;28;20029;-62
2022/10/18 09:41:37;;;;;;;73.88;51.78;;;29.80;99.90;;;;;;5035547;28;20026;-63
2022/10/18 09:44:12;;;;;;;61.60;40.20;;;29.40;99.90;;;;;;5031605;28;20053;-62
2022/10/18 09:46:45;;;;;;;59.20;38.50;;;29.40;99.90;;;;;;5035628;28;20021;-59
2022/10/18 09:49:15;;;;;;;72.35;43.28;;;29.20;99.90;;;;;;5024897;28;20428;-64
2022/10/18 09:51:42;;;;;;;63.10;38.75;;;29.30;99.90;;;;;;5015707;28;20029;-65
2022/10/18 09:54:14;;;;;;;52.20;35.53;;;29.40;99.90;;;;;;5015540;28;20494;-64
2022/10/18 09:56:43;;;;;;;45.65;33.35;;;29.50;99.90;;;;;;5015542;28;20053;-61
2022/10/18 09:59:22;;;;;;;59.45;38.97;;;29.40;99.90;;;;;;5015603;28;20028;-61
2022/10/18 10:01:48;;;;;;;66.85;44.90;;;29.30;99.90;;;;;;5015478;28;20026;-61
2022/10/18 10:04:15;;;;;;;55.45;35.72;;;29.20;99.90;;;;;;5015467;28;20026;-58
2022/10/18 10:06:49;;;;;;;45.30;29.83;;;29.30;99.90;;;;;;5015392;28;20049;-62
2022/10/18 10:09:20;;;;;;;52.03;33.13;;;29.30;99.90;;;;;;5015490;28;20478;-62
2022/10/18 10:11:49;;;;;;;44.05;29.45;;;29.40;99.90;;;;;;5015253;28;20029;-61
2022/10/18 10:16:51;;;;;;;41.58;26.88;;;29.40;99.90;;;;;;5015556;28;20018;-61
2022/10/18 10:19:19;;;;;;;40.05;25.08;;;29.40;99.90;;;;;;5015021;28;20042;-62
2022/10/18 10:21:50;;;;;;;44.22;24.88;;;29.50;99.90;;;;;;5015043;28;20041;-62
2022/10/18 10:24:22;;;;;;;34.30;22.90;;;29.60;99.90;;;;;;5015181;28;20514;-60
2022/10/18 10:26:49;;;;;;;38.05;23.27;;;29.60;99.90;;;;;;5014725;28;20109;-61
2022/10/18 10:29:20;;;;;;;29.58;22.30;;;29.60;99.90;;;;;;5015056;28;20026;-61
2022/10/18 10:32:02;;;;;;;36.45;25.85;;;29.60;99.90;;;;;;5015269;28;20025;-61
2022/10/18 10:34:29;;;;;;;52.58;32.63;;;29.50;99.90;;;;;;5014926;28;20708;-61
2022/10/18 10:36:56;;;;;;;64.32;37.63;;;29.50;99.90;;;;;;5014981;28;20045;-62
2022/10/18 10:39:24;;;;;;;41.72;26.80;;;29.60;99.90;;;;;;5014853;28;20467;-64
2022/10/18 10:41:53;;;;;;;22.48;16.20;;;29.60;99.90;;;;;;5014673;28;20037;-62
2022/10/18 10:44:25;;;;;;;20.65;16.55;;;29.60;99.90;;;;;;5014544;28;20176;-62
2022/10/18 10:46:53;;;;;;;25.55;18.25;;;29.50;99.90;;;;;;5014614;28;20509;-66
2022/10/18 10:49:21;;;;;;;24.05;18.33;;;29.50;99.90;;;;;;5014686;28;20063;-64
2022/10/18 10:51:53;;;;;;;33.90;23.30;;;29.40;99.90;;;;;;5014522;28;20036;-64
2022/10/18 10:54:23;;;;;;;37.50;25.45;;;29.40;99.90;;;;;;5014312;28;20084;-63
2022/10/18 10:56:54;;;;;;;44.08;27.83;;;29.40;99.90;;;;;;5013946;28;20072;-64
2022/10/18 10:59:25;;;;;;;47.95;29.85;;;29.40;99.90;;;;;;5014319;28;20423;-63
2022/10/18 11:02:11;;;;;;;46.08;30.52;;;29.40;99.90;;;;;;5014255;28;20030;-63
2022/10/18 11:04:37;;;;;;;60.03;39.40;;;29.40;99.90;;;;;;5014398;28;20029;-63
2022/10/18 11:07:16;;;;;;;57.35;41.15;;;29.50;99.90;;;;;;5014169;28;20030;-63
2022/10/18 11:09:48;;;;;;;60.92;37.67;;;29.60;99.90;;;;;;5014442;28;20029;-63
2022/10/18 11:12:21;;;;;;;63.28;38.67;;;29.60;99.90;;;;;;5014179;28;20026;-65
2022/10/18 11:14:56;;;;;;;62.17;38.83;;;29.60;99.90;;;;;;5014455;28;20030;-63
2022/10/18 11:17:41;;;;;;;71.03;43.10;;;29.50;99.90;;;;;;5013999;28;20025;-62
2022/10/18 11:20:09;;;;;;;81.35;53.42;;;29.50;99.90;;;;;;5014242;28;20417;-61
2022/10/18 11:22:42;;;;;;;87.72;57.63;;;29.50;99.90;;;;;;5013939;28;20022;-66
2022/10/18 11:25:15;;;;;;;75.57;50.83;;;29.30;99.90;;;;;;5013349;28;20101;-63
2022/10/18 11:27:53;;;;;;;70.32;43.47;;;29.30;99.90;;;;;;5014256;28;20060;-63
2022/10/18 11:30:33;;;;;;;58.63;34.05;;;29.30;99.90;;;;;;5013799;28;20080;-63
2022/10/18 11:33:02;;;;;;;47.63;32.58;;;29.10;99.90;;;;;;5013832;28;20022;-63
2022/10/18 11:35:39;;;;;;;52.55;30.67;;;29.10;99.90;;;;;;5013587;28;20030;-63
2022/10/18 11:38:11;;;;;;;42.67;29.95;;;29.00;99.90;;;;;;5013670;28;20527;-63
2022/10/18 11:40:39;;;;;;;47.15;31.08;;;29.00;99.90;;;;;;5013580;28;20104;-62
2022/10/18 11:43:14;;;;;;;46.65;30.55;;;29.00;99.90;;;;;;5013277;28;20478;-62
2022/10/18 11:45:42;;;;;;;48.70;32.65;;;29.00;99.90;;;;;;5013441;28;20127;-62
2022/10/18 11:48:13;;;;;;;53.45;37.17;;;29.10;99.90;;;;;;5013544;28;20022;-62
2022/10/18 11:50:53;;;;;;;55.15;38.38;;;29.10;99.90;;;;;;5013665;28;20127;-61
2022/10/18 11:53:23;;;;;;;57.88;40.25;;;29.00;99.90;;;;;;5013282;28;20466;-63
2022/10/18 11:55:54;;;;;;;60.53;39.95;;;28.90;99.90;;;;;;5013507;28;20034;-62
2022/10/18 11:58:22;;;;;;;63.47;41.38;;;28.80;99.90;;;;;;5013453;28;20022;-66
2022/10/18 12:00:54;;;;;;;63.60;42.40;;;28.70;99.90;;;;;;5013601;28;20029;-65
2022/10/18 12:03:26;;;;;;;;;;;28.70;99.90;;;;;;5025421;28;20029;-62
2022/10/18 12:05:57;;;;;;;65.75;43.53;;;28.80;99.90;;;;;;5022815;28;19909;-62
2022/10/18 12:08:34;;;;;;;67.28;45.50;;;28.80;99.90;;;;;;5028948;28;20363;-60
2022/10/18 12:11:07;;;;;;;79.82;50.97;;;28.80;99.90;;;;;;5033092;28;20474;-66
2022/10/18 12:13:40;;;;;;;68.82;49.25;;;28.70;99.90;;;;;;5033063;28;20047;-66
2022/10/18 12:16:08;;;;;;;65.38;49.42;;;28.70;99.90;;;;;;5033122;28;20063;-66
2022/10/18 12:18:43;;;;;;;72.28;52.85;;;28.60;99.90;;;;;;5033033;28;20109;-67
2022/10/18 12:21:11;;;;;;;66.40;51.65;;;28.50;99.90;;;;;;5033164;28;20014;-66
2022/10/18 12:23:44;;;;;;;75.10;51.97;;;28.60;99.90;;;;;;5032878;28;20022;-67
2022/10/18 12:26:10;;;;;;;75.65;55.55;;;28.60;99.90;;;;;;5023942;28;20033;-61
2022/10/18 12:28:46;;;;;;;73.20;54.67;;;28.60;99.90;;;;;;5022941;28;20017;-65
2022/10/18 12:31:21;;;;;;;75.93;50.38;;;28.40;99.90;;;;;;5022607;28;20042;-63
2022/10/18 12:33:54;;;;;;;72.20;53.42;;;28.30;99.90;;;;;;5028364;28;20033;-62
2022/10/18 12:36:20;;;;;;;65.32;47.97;;;28.30;99.90;;;;;;5033022;28;20018;-61
2022/10/18 12:39:01;;;;;;;62.90;48.60;;;28.30;99.90;;;;;;5014828;28;20492;-63